Time;durP1;ratioP1;P1;durP2;ratioP2;P2;SDS_P1;SDS_P2;PMS_P1;PMS_P2;Temp;Humidity;BMP_temperature;BMP_pressure;BME280_temperature;BME280_humidity;BME280_pressure;Samples;Min_cycle;Max_cycle;Signal;HPM_P1;HPM_P2
2023/09/07 00:01:55;;;;;;;10.20;7.10;;;;;;;15.57;87.32;101637.77;105843;1269;102777;-87
2023/09/07 00:04:41;;;;;;;13.20;8.20;;;;;;;15.56;86.95;101640.59;106007;1266;108610;-87
2023/09/07 00:07:26;;;;;;;15.30;9.40;;;;;;;15.55;87.27;101641.06;105944;1267;98065;-88
2023/09/07 00:10:14;;;;;;;13.10;9.20;;;;;;;15.58;87.26;101640.88;105825;1260;97956;-87
2023/09/07 00:13:02;;;;;;;15.80;11.30;;;;;;;15.61;87.61;101639.75;105640;1263;97997;-88
2023/09/07 00:15:47;;;;;;;17.80;11.10;;;;;;;15.63;87.46;101641.88;105878;1260;102713;-87
2023/09/07 00:18:34;;;;;;;15.60;11.00;;;;;;;15.62;87.46;101640.59;105876;1260;100381;-87
2023/09/07 00:21:19;;;;;;;19.50;10.80;;;;;;;15.59;87.37;101636.61;105857;1276;97969;-87
2023/09/07 00:24:06;;;;;;;14.60;10.20;;;;;;;15.58;87.55;101636.60;105943;1270;97896;-87
2023/09/07 00:26:52;;;;;;;13.70;10.00;;;;;;;15.59;87.60;101642.48;105928;1266;98473;-87
2023/09/07 00:29:38;;;;;;;12.80;9.40;;;;;;;15.59;87.71;101644.59;106102;1264;101495;-88
2023/09/07 00:32:24;;;;;;;14.00;9.70;;;;;;;15.56;87.57;101641.70;105941;1264;100059;-88
2023/09/07 00:35:10;;;;;;;15.30;10.00;;;;;;;15.53;87.62;101644.37;105729;1267;99263;-87
2023/09/07 00:37:55;;;;;;;15.00;10.40;;;;;;;15.50;87.70;101648.65;105911;1269;98070;-88
2023/09/07 00:40:45;;;;;;;13.00;9.90;;;;;;;15.45;87.86;101651.89;105786;1260;98506;-87
2023/09/07 00:43:33;;;;;;;14.80;8.60;;;;;;;15.41;87.60;101651.83;105814;1266;103129;-87
2023/09/07 00:46:20;;;;;;;14.50;7.70;;;;;;;15.35;87.23;101647.71;105655;1267;206331;-87
2023/09/07 00:49:06;;;;;;;9.30;7.00;;;;;;;15.29;86.96;101647.25;105842;1267;98000;-86
2023/09/07 00:51:52;;;;;;;9.60;6.60;;;;;;;15.23;87.01;101647.77;105728;1261;98038;-87
2023/09/07 00:54:40;;;;;;;8.20;7.00;;;;;;;15.18;86.83;101647.69;105689;1268;97945;-86
2023/09/07 00:57:26;;;;;;;11.00;6.70;;;;;;;15.15;86.74;101647.98;105894;1267;101561;-88
2023/09/07 01:00:13;;;;;;;11.60;7.50;;;;;;;15.11;87.34;101641.76;105809;1266;101516;-87
2023/09/07 01:02:58;;;;;;;11.90;7.00;;;;;;;15.09;87.48;101646.01;106022;1267;98389;-86
2023/09/07 01:05:47;;;;;;;9.50;6.40;;;;;;;15.06;87.29;101644.64;105848;1269;97992;-86
2023/09/07 01:08:44;;;;;;;8.80;5.80;;;;;;;14.98;87.03;101644.30;106083;1260;98505;-87
2023/09/07 01:11:37;;;;;;;7.80;5.60;;;;;;;14.93;87.13;101643.86;106124;1269;102171;-87
2023/09/07 01:14:22;;;;;;;8.60;7.00;;;;;;;14.89;87.02;101639.41;106011;1267;99333;-86
2023/09/07 01:17:09;;;;;;;9.80;7.90;;;;;;;14.88;87.37;101640.10;105907;1268;99023;-87
2023/09/07 01:19:59;;;;;;;11.90;6.90;;;;;;;14.87;87.47;101641.73;105732;1260;97979;-86
2023/09/07 01:22:45;;;;;;;12.20;7.30;;;;;;;14.86;87.55;101644.62;105966;1261;98389;-87
2023/09/07 01:25:32;;;;;;;10.00;6.50;;;;;;;14.84;87.75;101645.05;105919;1270;101466;-86
2023/09/07 01:28:18;;;;;;;8.40;6.50;;;;;;;14.81;87.48;101643.10;105963;1264;99200;-86
2023/09/07 01:31:05;;;;;;;8.70;7.00;;;;;;;14.79;87.84;101637.92;105708;1260;98001;-88
2023/09/07 01:33:51;;;;;;;9.90;7.00;;;;;;;14.76;87.80;101640.09;106018;1269;98772;-87
2023/09/07 01:36:37;;;;;;;9.10;6.40;;;;;;;14.71;87.68;101639.79;105785;1264;97979;-87
2023/09/07 01:39:23;;;;;;;9.30;6.30;;;;;;;14.68;87.73;101640.33;105799;1264;101580;-87
2023/09/07 01:42:09;;;;;;;9.30;6.30;;;;;;;14.65;87.66;101635.92;105748;1260;100185;-86
2023/09/07 01:44:54;;;;;;;6.80;5.60;;;;;;;14.62;87.49;101636.98;106002;1260;99100;-86
2023/09/07 01:47:40;;;;;;;7.90;6.00;;;;;;;14.59;87.35;101639.83;105863;1260;97963;-86
2023/09/07 01:50:26;;;;;;;7.50;5.40;;;;;;;14.55;87.37;101637.65;106086;1267;96542;-89
2023/09/07 01:53:12;;;;;;;8.90;5.80;;;;;;;14.50;87.27;101639.04;106012;1260;101479;-88
2023/09/07 01:55:59;;;;;;;7.80;6.40;;;;;;;14.46;87.15;101638.00;106063;1264;99162;-88
2023/09/07 01:58:45;;;;;;;8.10;6.40;;;;;;;14.46;87.67;101643.30;105921;1267;99689;-86
2023/09/07 02:01:36;;;;;;;8.10;6.50;;;;;;;14.44;87.89;101645.78;105830;1261;98018;-86
2023/09/07 02:04:22;;;;;;;8.70;6.90;;;;;;;14.43;88.00;101645.59;105990;1260;97981;-88
2023/09/07 02:07:08;;;;;;;9.50;6.10;;;;;;;14.41;87.70;101643.90;106364;1260;101458;-86
2023/09/07 02:09:53;;;;;;;8.60;6.90;;;;;;;14.38;87.75;101644.40;106399;1263;99259;-87
2023/09/07 02:12:39;;;;;;;8.60;6.60;;;;;;;14.38;88.09;101642.29;106170;1264;97806;-87
2023/09/07 02:15:25;;;;;;;10.40;6.40;;;;;;;14.39;88.12;101642.48;106411;1264;98056;-88
2023/09/07 02:18:11;;;;;;;13.70;6.60;;;;;;;14.39;88.09;101647.48;106443;1261;98509;-87
2023/09/07 02:21:04;;;;;;;10.50;8.40;;;;;;;14.38;88.04;101649.33;106254;1261;101557;-89
2023/09/07 02:23:49;;;;;;;9.00;7.30;;;;;;;14.34;88.04;101651.02;105891;1260;99269;-87
2023/09/07 02:26:35;;;;;;;8.30;6.50;;;;;;;14.32;88.35;101651.45;106089;1260;98080;-88
2023/09/07 02:29:22;;;;;;;10.10;6.70;;;;;;;14.30;88.40;101654.59;106049;1267;98419;-88
2023/09/07 02:32:09;;;;;;;10.60;7.00;;;;;;;14.27;88.31;101651.51;105868;1269;98724;-86
2023/09/07 02:34:55;;;;;;;10.30;6.90;;;;;;;14.24;88.30;101651.75;106116;1260;102060;-88
2023/09/07 02:37:41;;;;;;;8.70;6.60;;;;;;;14.19;88.16;101651.75;105804;1270;99211;-86
2023/09/07 02:40:27;;;;;;;11.00;6.00;;;;;;;14.14;87.97;101651.64;106130;1269;97927;-87
2023/09/07 02:43:13;;;;;;;6.20;5.30;;;;;;;14.10;88.17;101651.77;106108;1260;98049;-89
2023/09/07 02:45:58;;;;;;;10.50;5.90;;;;;;;14.06;88.12;101648.90;105768;1270;97949;-87
2023/09/07 02:48:44;;;;;;;13.40;6.20;;;;;;;14.02;88.13;101651.13;105857;1260;101498;-87
2023/09/07 02:51:30;;;;;;;10.80;6.40;;;;;;;13.99;87.91;101652.94;106075;1260;99272;-86
2023/09/07 02:54:16;;;;;;;12.10;6.30;;;;;;;13.95;87.96;101653.66;105938;1260;99081;-87
2023/09/07 02:57:02;;;;;;;6.80;6.20;;;;;;;13.90;88.23;101657.73;106105;1260;97998;-86
2023/09/07 02:59:48;;;;;;;7.80;6.40;;;;;;;13.89;88.47;101659.94;105905;1261;97867;-86
2023/09/07 03:02:35;;;;;;;8.90;6.30;;;;;;;13.86;88.49;101658.86;105822;1261;102489;-87
2023/09/07 03:05:21;;;;;;;7.70;5.60;;;;;;;13.84;88.45;101656.58;105899;1262;99177;-87
2023/09/07 03:08:07;;;;;;;7.10;5.50;;;;;;;13.79;88.43;101656.09;105957;1260;98049;-87
2023/09/07 03:10:53;;;;;;;11.20;6.50;;;;;;;13.76;88.29;101656.42;105941;1261;97856;-88
2023/09/07 03:13:39;;;;;;;8.60;5.40;;;;;;;13.73;88.11;101655.53;105790;1261;96383;-88
2023/09/07 03:16:25;;;;;;;7.20;5.50;;;;;;;13.70;88.33;101655.73;106064;1260;102288;-88
2023/09/07 03:19:11;;;;;;;10.00;6.20;;;;;;;13.67;88.42;101653.00;106041;1270;99505;-87
2023/09/07 03:21:57;;;;;;;9.50;6.40;;;;;;;13.64;88.59;101655.00;106053;1260;98173;-86
2023/09/07 03:24:43;;;;;;;12.10;6.00;;;;;;;13.62;88.66;101656.80;105964;1270;98205;-87
2023/09/07 03:27:29;;;;;;;8.10;5.70;;;;;;;13.61;88.73;101657.73;106261;1260;98401;-87
2023/09/07 03:30:15;;;;;;;6.40;5.70;;;;;;;13.58;88.66;101660.61;106170;1260;101430;-87
2023/09/07 03:33:03;;;;;;;6.00;5.20;;;;;;;13.55;88.44;101661.80;106181;1260;99203;-87
2023/09/07 03:35:51;;;;;;;6.40;5.20;;;;;;;13.54;88.69;101660.46;105827;1264;99435;-87
2023/09/07 03:38:37;;;;;;;5.60;4.80;;;;;;;13.52;88.47;101662.04;105834;1267;97929;-88
2023/09/07 03:41:30;;;;;;;6.50;4.80;;;;;;;13.49;88.59;101662.73;105851;1264;97864;-86
2023/09/07 03:44:16;;;;;;;4.70;4.10;;;;;;;13.45;88.72;101660.18;105925;1260;102756;-86
2023/09/07 03:47:02;;;;;;;7.20;4.60;;;;;;;13.41;88.79;101657.66;105868;1260;99065;-87
2023/09/07 03:49:47;;;;;;;4.80;4.30;;;;;;;13.36;88.54;101657.83;106051;1261;97841;-86
2023/09/07 03:52:33;;;;;;;9.90;5.30;;;;;;;13.32;88.68;101657.05;106006;1269;98033;-89
2023/09/07 03:55:20;;;;;;;5.40;4.20;;;;;;;13.29;88.45;101659.05;105921;1260;98457;-87
2023/09/07 03:58:06;;;;;;;4.80;4.10;;;;;;;13.26;88.51;101661.48;105874;1261;102088;-87
2023/09/07 04:00:52;;;;;;;7.70;4.50;;;;;;;13.23;88.51;101665.03;105973;1260;99189;-87
2023/09/07 04:03:37;;;;;;;5.80;3.90;;;;;;;13.21;88.48;101667.09;105969;1261;97968;-87
2023/09/07 04:06:24;;;;;;;5.80;4.10;;;;;;;13.19;88.41;101665.98;106177;1267;98107;-86
2023/09/07 04:09:09;;;;;;;7.60;4.70;;;;;;;13.16;88.30;101669.83;106242;1262;98030;-87
2023/09/07 04:11:55;;;;;;;5.10;4.60;;;;;;;13.15;88.52;101670.00;105898;1261;101347;-86
2023/09/07 04:14:42;;;;;;;6.20;4.90;;;;;;;13.14;88.70;101668.12;105986;1263;99211;-87
2023/09/07 04:17:27;;;;;;;8.90;5.40;;;;;;;13.14;88.86;101669.33;105851;1260;98364;-87
2023/09/07 04:20:13;;;;;;;9.00;5.10;;;;;;;13.13;89.08;101669.06;105829;1270;97948;-87
2023/09/07 04:22:59;;;;;;;5.70;5.10;;;;;;;13.13;89.08;101671.28;106209;1262;97771;-87
2023/09/07 04:25:45;;;;;;;5.80;5.00;;;;;;;13.12;89.29;101669.77;105946;1261;102744;-88
2023/09/07 04:28:31;;;;;;;7.10;5.40;;;;;;;13.12;89.72;101675.50;105905;1267;99167;-87
2023/09/07 04:31:18;;;;;;;7.50;5.40;;;;;;;13.12;89.89;101682.27;105949;1260;97985;-87
2023/09/07 04:34:04;;;;;;;8.80;5.50;;;;;;;13.13;90.14;101682.15;106089;1260;97910;-87
2023/09/07 04:36:50;;;;;;;9.20;6.40;;;;;;;13.17;90.02;101682.52;106024;1261;98434;-87
2023/09/07 04:39:36;;;;;;;12.00;5.60;;;;;;;13.21;90.49;101680.92;106015;1264;102551;-88
2023/09/07 04:42:22;;;;;;;7.80;5.70;;;;;;;13.26;90.76;101685.61;105920;1260;99270;-87
2023/09/07 04:45:09;;;;;;;7.40;6.00;;;;;;;13.29;90.96;101689.64;105980;1264;98014;-87
2023/09/07 04:47:54;;;;;;;8.50;5.50;;;;;;;13.32;91.06;101687.84;106069;1260;97893;-88
2023/09/07 04:50:46;;;;;;;6.60;5.80;;;;;;;13.35;91.05;101691.53;106177;1261;98032;-86
2023/09/07 04:53:35;;;;;;;8.80;5.80;;;;;;;13.38;91.06;101692.41;105980;1270;101440;-88
2023/09/07 04:56:21;;;;;;;10.40;5.60;;;;;;;13.42;91.44;101695.70;105887;1264;100370;-88
2023/09/07 04:59:07;;;;;;;5.70;5.20;;;;;;;13.47;91.60;101700.17;106007;1264;98441;-89
2023/09/07 05:01:53;;;;;;;9.50;5.70;;;;;;;13.52;91.93;101700.77;105891;1260;98017;-87
2023/09/07 05:04:41;;;;;;;14.10;6.30;;;;;;;13.56;92.18;101701.85;106082;1260;99657;-87
2023/09/07 05:07:31;;;;;;;8.70;6.40;;;;;;;13.61;92.20;101699.86;106226;1260;102000;-87
2023/09/07 05:10:16;;;;;;;11.60;7.60;;;;;;;13.67;92.38;101704.89;105978;1264;99836;-87
2023/09/07 05:13:03;;;;;;;8.30;6.50;;;;;;;13.74;92.59;101705.86;106292;1260;98283;-87
2023/09/07 05:15:50;;;;;;;9.30;7.30;;;;;;;13.80;92.85;101707.04;106209;1266;97980;-87
2023/09/07 05:18:37;;;;;;;8.90;6.90;;;;;;;13.86;93.24;101708.75;105859;1260;98103;-87
2023/09/07 05:21:23;;;;;;;7.80;6.60;;;;;;;13.89;93.45;101711.05;106134;1264;101384;-87
2023/09/07 05:24:09;;;;;;;6.90;6.30;;;;;;;13.91;93.47;101710.79;106078;1260;108051;-86
2023/09/07 05:26:55;;;;;;;12.00;6.40;;;;;;;13.95;93.84;101712.92;105896;1260;98503;-87
2023/09/07 05:29:41;;;;;;;10.70;7.20;;;;;;;13.99;94.24;101715.88;106075;1269;98003;-89
2023/09/07 05:32:26;;;;;;;8.70;6.70;;;;;;;14.03;94.55;101718.98;105953;1260;99690;-88
2023/09/07 05:35:27;;;;;;;9.20;6.70;;;;;;;14.05;94.89;101715.62;106107;1260;101471;-89
2023/09/07 05:38:13;;;;;;;7.40;6.50;;;;;;;14.09;95.76;101719.88;105984;1260;99203;-87
2023/09/07 05:40:59;;;;;;;7.00;6.30;;;;;;;14.13;96.09;101720.44;106029;1261;98955;-88
2023/09/07 05:43:45;;;;;;;8.80;7.30;;;;;;;14.18;96.31;101718.33;106110;1260;97963;-88
2023/09/07 05:46:30;;;;;;;9.60;7.40;;;;;;;14.25;96.88;101718.10;106140;1260;97976;-88
2023/09/07 05:49:16;;;;;;;9.90;8.50;;;;;;;14.31;97.50;101723.08;106222;1260;101446;-87
2023/09/07 05:52:02;;;;;;;9.00;8.00;;;;;;;14.38;98.02;101724.80;106062;1261;100554;-86
2023/09/07 05:54:48;;;;;;;10.40;8.20;;;;;;;14.45;98.53;101727.86;105989;1264;99561;-88
2023/09/07 06:00:39;;;;;;;12.70;10.10;;;;;;;14.62;99.24;101730.94;105996;1264;97968;-85
2023/09/07 06:03:29;;;;;;;12.50;10.30;;;;;;;14.73;99.88;101732.49;105783;1269;103227;-85
2023/09/07 06:06:16;;;;;;;15.40;13.30;;;;;;;14.85;99.99;101736.60;106330;1267;100473;-89
2023/09/07 06:12:07;;;;;;;20.10;14.70;;;;;;;15.11;100.00;101740.73;106044;1264;97940;-87
2023/09/07 06:14:55;;;;;;;19.20;14.40;;;;;;;15.25;100.00;101740.86;105696;1263;98534;-85
2023/09/07 06:17:40;;;;;;;21.30;16.40;;;;;;;15.37;100.00;101743.08;105953;1267;101506;-85
2023/09/07 06:20:27;;;;;;;20.30;16.70;;;;;;;15.50;100.00;101745.98;105863;1264;100604;-87
2023/09/07 06:32:52;;;;;;;18.00;15.00;;;;;;;16.03;100.00;101745.63;105980;1267;101314;-82
2023/09/07 06:35:39;;;;;;;20.40;15.00;;;;;;;16.17;100.00;101746.41;105630;1267;99557;-87
2023/09/07 06:38:25;;;;;;;20.40;16.00;;;;;;;16.31;100.00;101748.22;105743;1275;97997;-88
2023/09/07 06:41:12;;;;;;;17.50;15.60;;;;;;;16.44;100.00;101750.65;105615;1276;98068;-88
2023/09/07 06:43:58;;;;;;;19.90;15.50;;;;;;;16.56;100.00;101748.36;105400;1267;98421;-88
2023/09/07 06:46:49;;;;;;;17.50;15.00;;;;;;;16.67;100.00;101745.60;105884;1273;101601;-91
2023/09/07 06:49:39;;;;;;;19.60;15.90;;;;;;;16.78;100.00;101744.20;105917;1268;99087;-90
2023/09/07 06:52:25;;;;;;;16.80;14.70;;;;;;;16.88;100.00;101743.98;105123;1267;98013;-85
2023/09/07 06:55:11;;;;;;;17.20;14.50;;;;;;;17.00;100.00;101746.79;105751;1276;97998;-90
2023/09/07 06:57:57;;;;;;;20.80;15.30;;;;;;;17.11;100.00;101748.38;105864;1276;98040;-88
2023/09/07 07:00:45;;;;;;;18.10;14.40;;;;;;;17.21;100.00;101751.67;105995;1273;101519;-88
2023/09/07 07:03:30;;;;;;;16.60;14.30;;;;;;;17.34;100.00;101747.09;105580;1267;108017;-85
2023/09/07 07:06:17;;;;;;;18.80;13.90;;;;;;;17.44;100.00;101754.01;106073;1273;99593;-89
2023/09/07 07:09:03;;;;;;;15.00;13.40;;;;;;;17.56;100.00;101754.23;106011;1276;97952;-88
2023/09/07 07:11:49;;;;;;;19.90;13.40;;;;;;;17.69;100.00;101754.80;106226;1268;98013;-90
2023/09/07 07:14:35;;;;;;;19.30;12.90;;;;;;;17.83;100.00;101758.50;106057;1267;101510;-91
2023/09/07 07:17:21;;;;;;;16.40;13.80;;;;;;;17.97;100.00;101758.11;105321;1267;99881;-87
2023/09/07 07:20:08;;;;;;;19.70;14.60;;;;;;;18.11;100.00;101763.20;105754;1268;107969;-87
2023/09/07 07:22:54;;;;;;;17.20;13.80;;;;;;;18.21;100.00;101758.71;105533;1270;97992;-89
2023/09/07 07:25:40;;;;;;;16.70;12.90;;;;;;;18.33;100.00;101760.64;105403;1267;96588;-85
2023/09/07 07:28:26;;;;;;;16.00;12.70;;;;;;;18.43;100.00;101764.64;105481;1273;102751;-89
2023/09/07 07:31:12;;;;;;;20.20;12.70;;;;;;;18.53;100.00;101765.15;105663;1270;99039;-87
2023/09/07 07:34:03;;;;;;;14.30;11.80;;;;;;;18.64;100.00;101767.06;105839;1267;98130;-90
2023/09/07 07:36:49;;;;;;;16.50;12.60;;;;;;;18.75;100.00;101768.34;105552;1267;99228;-84
2023/09/07 07:39:35;;;;;;;16.80;12.00;;;;;;;18.86;100.00;101767.05;105468;1275;98089;-86
2023/09/07 07:42:22;;;;;;;13.80;11.80;;;;;;;18.96;100.00;101765.06;105917;1273;102094;-88
2023/09/07 07:45:10;;;;;;;14.20;10.90;;;;;;;19.06;100.00;101764.69;105798;1267;100664;-89
2023/09/07 07:47:59;;;;;;;13.40;11.70;;;;;;;19.18;100.00;101769.08;105558;1267;99160;-86
2023/09/07 07:50:45;;;;;;;15.60;10.80;;;;;;;19.28;99.93;101768.20;105514;1276;96615;-79
2023/09/07 07:53:32;;;;;;;14.50;11.10;;;;;;;19.38;99.86;101764.65;105120;1272;98411;-83
2023/09/07 07:56:19;;;;;;;15.80;10.50;;;;;;;19.48;99.59;101765.39;105012;1273;102618;-84
2023/09/07 07:59:06;;;;;;;11.80;10.30;;;;;;;19.57;98.93;101765.09;105096;1268;99200;-84
2023/09/07 08:01:52;;;;;;;12.00;9.90;;;;;;;19.67;99.08;101771.73;105072;1268;97919;-83
2023/09/07 08:04:38;;;;;;;13.00;10.10;;;;;;;19.78;99.12;101777.44;105258;1267;98074;-85
2023/09/07 08:07:26;;;;;;;12.40;10.00;;;;;;;19.92;98.55;101780.86;105344;1268;97950;-86
2023/09/07 08:10:12;;;;;;;14.60;10.00;;;;;;;20.05;98.59;101780.40;105572;1267;101400;-87
2023/09/07 08:12:58;;;;;;;10.60;9.20;;;;;;;20.16;97.48;101778.02;105239;1267;99593;-86
2023/09/07 08:15:44;;;;;;;12.80;9.70;;;;;;;20.25;96.87;101774.83;105679;1270;99003;-89
2023/09/07 08:18:34;;;;;;;13.90;9.60;;;;;;;20.36;96.73;101776.00;105572;1276;97943;-86
2023/09/07 08:21:20;;;;;;;11.30;9.20;;;;;;;20.47;96.74;101776.80;105932;1267;98463;-87
2023/09/07 08:24:06;;;;;;;12.30;8.60;;;;;;;20.59;95.94;101772.77;106052;1270;102733;-88
2023/09/07 08:26:54;;;;;;;12.50;8.70;;;;;;;20.69;95.87;101773.84;105308;1267;100198;-86
2023/09/07 08:29:40;;;;;;;10.90;8.50;;;;;;;20.80;96.04;101772.14;105821;1273;98506;-88
2023/09/07 08:32:26;;;;;;;10.40;8.70;;;;;;;20.91;95.63;101771.85;105591;1268;98481;-86
2023/09/07 08:35:16;;;;;;;10.00;8.30;;;;;;;21.02;96.00;101764.75;105621;1276;98151;-88
2023/09/07 08:38:05;;;;;;;9.20;7.30;;;;;;;21.15;95.90;101768.26;105663;1274;102386;-88
2023/09/07 08:40:53;;;;;;;10.90;8.20;;;;;;;21.26;94.52;101770.01;105714;1275;99312;-86
2023/09/07 08:43:46;;;;;;;9.20;7.40;;;;;;;21.36;93.16;101765.98;105734;1267;98002;-91
2023/09/07 08:46:33;;;;;;;9.00;8.00;;;;;;;21.48;92.62;101772.52;105910;1275;98063;-87
2023/09/07 08:49:20;;;;;;;8.60;7.50;;;;;;;21.57;92.50;101773.50;106178;1268;97898;-92
2023/09/07 08:52:06;;;;;;;9.10;7.10;;;;;;;21.67;91.97;101771.60;105362;1273;101405;-87
2023/09/07 08:54:54;;;;;;;9.90;7.90;;;;;;;21.78;91.46;101767.41;105776;1274;99194;-90
2023/09/07 08:57:39;;;;;;;8.60;7.10;;;;;;;21.88;90.65;101763.17;105547;1276;98535;-87
2023/09/07 09:00:25;;;;;;;9.40;6.50;;;;;;;21.97;91.30;101762.71;105932;1273;97970;-91
2023/09/07 09:03:11;;;;;;;7.20;6.20;;;;;;;22.07;91.42;101762.05;105708;1274;98531;-84
2023/09/07 09:05:56;;;;;;;7.80;6.90;;;;;;;22.16;90.86;101763.55;105448;1273;101394;-84
2023/09/07 09:08:43;;;;;;;7.90;7.10;;;;;;;22.26;90.37;101767.35;105281;1273;99272;-84
2023/09/07 09:11:29;;;;;;;9.20;6.20;;;;;;;22.37;91.02;101764.16;105237;1272;98045;-85
2023/09/07 09:14:18;;;;;;;8.00;6.70;;;;;;;22.47;90.41;101764.58;105140;1275;97995;-84
2023/09/07 09:17:04;;;;;;;8.20;5.30;;;;;;;22.57;89.28;101765.61;105296;1267;97918;-84
2023/09/07 09:19:49;;;;;;;7.20;5.90;;;;;;;22.67;88.25;101763.73;105524;1271;102683;-85
2023/09/07 09:22:35;;;;;;;8.80;5.50;;;;;;;22.76;87.66;101767.59;105333;1268;100126;-83
2023/09/07 09:25:22;;;;;;;7.30;5.10;;;;;;;22.85;87.13;101763.60;105186;1268;98446;-84
2023/09/07 09:28:10;;;;;;;6.90;4.80;;;;;;;22.92;86.91;101761.02;105198;1269;98081;-85
2023/09/07 09:30:55;;;;;;;10.30;4.90;;;;;;;23.02;85.52;101760.73;105555;1273;98552;-86
2023/09/07 09:33:42;;;;;;;7.00;4.70;;;;;;;23.13;85.66;101762.55;105422;1268;101464;-87
2023/09/07 09:36:36;;;;;;;5.00;4.40;;;;;;;23.21;84.35;101761.67;105752;1267;99193;-88
2023/09/07 09:39:25;;;;;;;5.00;3.60;;;;;;;23.28;83.26;101763.48;105767;1273;98068;-90
2023/09/07 09:42:13;;;;;;;5.90;3.50;;;;;;;23.35;81.70;101761.67;105890;1276;97964;-90
2023/09/07 09:45:00;;;;;;;6.10;3.70;;;;;;;23.42;81.45;101758.97;106210;1268;96432;-88
2023/09/07 09:47:48;;;;;;;5.30;3.80;;;;;;;23.53;81.54;101755.73;105833;1267;103216;-88
2023/09/07 09:50:38;;;;;;;3.80;3.40;;;;;;;23.61;80.64;101752.23;105910;1273;100794;-89
2023/09/07 09:53:27;;;;;;;8.00;4.00;;;;;;;23.68;81.31;101746.52;106216;1272;97972;-89
2023/09/07 09:56:13;;;;;;;6.10;3.80;;;;;;;23.76;80.17;101748.69;105858;1270;97866;-89
2023/09/07 09:58:58;;;;;;;3.90;3.50;;;;;;;23.83;79.50;101750.67;106220;1268;96476;-88
2023/09/07 10:01:48;;;;;;;5.20;3.60;;;;;;;23.88;78.69;101750.21;105790;1273;102518;-87
2023/09/07 10:04:34;;;;;;;5.50;4.00;;;;;;;23.94;78.77;101750.55;105857;1270;100591;-88
2023/09/07 10:07:29;;;;;;;4.60;4.00;;;;;;;24.01;78.62;101750.54;105825;1267;97989;-89
2023/09/07 10:10:17;;;;;;;4.10;3.50;;;;;;;24.10;77.80;101753.63;106051;1269;97988;-88
2023/09/07 10:13:04;;;;;;;6.00;3.80;;;;;;;24.20;78.86;101749.59;105939;1268;97943;-85
2023/09/07 10:16:07;;;;;;;4.00;3.60;;;;;;;24.33;79.05;101751.35;105119;1267;110763;-88
2023/09/07 10:18:52;;;;;;;4.10;3.60;;;;;;;24.41;76.83;101752.46;105526;1273;99897;-83
2023/09/07 10:21:39;;;;;;;4.60;3.20;;;;;;;24.49;75.33;101752.09;105441;1273;97910;-84
2023/09/07 10:24:30;;;;;;;5.30;3.30;;;;;;;24.56;74.77;101753.17;105451;1270;98020;-90
2023/09/07 10:27:16;;;;;;;7.60;3.60;;;;;;;24.59;74.97;101752.58;105599;1276;97893;-87
2023/09/07 10:30:09;;;;;;;6.50;4.10;;;;;;;24.59;74.32;101750.48;105622;1267;102115;-86
2023/09/07 10:32:55;;;;;;;4.80;3.90;;;;;;;24.59;74.55;101751.65;105447;1268;99952;-87
2023/09/07 10:35:42;;;;;;;4.70;3.50;;;;;;;24.68;74.70;101748.59;105403;1275;99113;-87
2023/09/07 10:38:30;;;;;;;6.70;3.70;;;;;;;24.82;74.73;101747.30;105521;1275;97976;-86
2023/09/07 10:41:17;;;;;;;5.60;3.60;;;;;;;24.98;74.42;101747.06;105685;1273;98475;-87
2023/09/07 10:44:03;;;;;;;5.10;3.80;;;;;;;25.13;73.02;101746.45;105404;1276;101470;-86
2023/09/07 10:46:48;;;;;;;4.10;3.70;;;;;;;25.26;73.05;101745.77;105494;1267;99243;-88
2023/09/07 10:49:36;;;;;;;5.90;3.30;;;;;;;25.37;72.59;101744.42;105641;1272;99254;-86
2023/09/07 10:52:23;;;;;;;3.60;3.30;;;;;;;25.48;71.67;101742.95;105430;1273;98100;-86
2023/09/07 10:55:10;;;;;;;5.30;3.30;;;;;;;25.57;71.74;101736.58;105317;1276;98177;-86
2023/09/07 10:57:57;;;;;;;5.90;3.10;;;;;;;25.69;70.53;101738.06;105757;1275;101672;-87
2023/09/07 11:00:43;;;;;;;4.40;3.40;;;;;;;25.76;68.70;101737.20;105602;1268;100188;-88
2023/09/07 11:03:29;;;;;;;5.90;3.30;;;;;;;25.79;68.07;101739.98;105602;1267;98015;-88
2023/09/07 11:06:19;;;;;;;6.90;3.60;;;;;;;25.76;66.89;101735.61;105781;1273;97941;-88
2023/09/07 11:09:04;;;;;;;3.90;3.20;;;;;;;25.70;66.95;101734.11;105610;1267;96814;-87
2023/09/07 11:11:56;;;;;;;5.10;3.10;;;;;;;25.68;67.39;101734.33;105638;1274;102691;-86
2023/09/07 11:14:42;;;;;;;4.50;3.30;;;;;;;25.64;67.07;101735.77;105836;1267;99189;-86
2023/09/07 11:17:28;;;;;;;3.90;3.50;;;;;;;25.56;67.41;101731.60;105807;1273;98141;-88
2023/09/07 11:20:13;;;;;;;3.70;3.30;;;;;;;25.45;67.29;101733.40;105654;1270;98063;-88
2023/09/07 11:23:00;;;;;;;5.30;3.50;;;;;;;25.39;67.99;101735.85;105677;1273;98460;-87
2023/09/07 11:25:50;;;;;;;6.30;3.50;;;;;;;25.35;68.13;101732.06;105729;1274;101983;-89
2023/09/07 11:28:40;;;;;;;6.20;3.20;;;;;;;25.31;67.18;101732.35;105620;1274;108658;-87
2023/09/07 11:31:26;;;;;;;6.10;3.00;;;;;;;25.27;67.50;101728.58;105554;1267;98077;-89
2023/09/07 11:34:13;;;;;;;3.60;3.30;;;;;;;25.23;67.52;101727.42;105651;1270;98075;-88
2023/09/07 11:37:03;;;;;;;4.90;3.20;;;;;;;25.16;67.28;101722.86;105796;1276;98081;-88
2023/09/07 11:39:48;;;;;;;5.10;3.50;;;;;;;25.11;67.68;101721.20;105726;1276;102627;-87
2023/09/07 11:42:34;;;;;;;5.00;3.30;;;;;;;25.10;67.53;101718.70;105939;1272;99200;-87
2023/09/07 11:45:20;;;;;;;4.20;3.50;;;;;;;25.13;67.54;101720.89;105462;1276;99105;-89
2023/09/07 11:48:08;;;;;;;5.30;3.30;;;;;;;25.19;67.36;101713.17;105790;1272;97902;-86
2023/09/07 11:50:53;;;;;;;5.50;3.20;;;;;;;25.27;66.85;101712.39;105542;1276;97982;-85
2023/09/07 11:53:39;;;;;;;3.60;3.30;;;;;;;25.37;67.09;101712.78;105624;1271;102743;-86
2023/09/07 11:56:25;;;;;;;4.20;3.50;;;;;;;25.48;66.42;101716.44;105471;1276;99788;-87
2023/09/07 11:59:11;;;;;;;5.40;3.20;;;;;;;25.58;66.41;101715.16;105600;1267;98081;-88
2023/09/07 12:01:56;;;;;;;4.50;3.40;;;;;;;25.65;65.45;101709.04;105466;1277;97957;-87
2023/09/07 12:04:42;;;;;;;8.40;4.00;;;;;;;25.75;65.94;101709.64;105414;1276;98424;-87
2023/09/07 12:07:28;;;;;;;3.40;3.10;;;;;;;25.83;64.62;101711.13;105465;1268;101455;-88
2023/09/07 12:10:13;;;;;;;3.80;3.30;;;;;;;25.90;64.33;101711.91;105551;1267;99333;-86
2023/09/07 12:12:59;;;;;;;4.00;3.50;;;;;;;25.96;63.79;101709.21;105580;1267;98039;-86
2023/09/07 12:15:45;;;;;;;4.60;3.20;;;;;;;26.04;63.00;101709.39;105582;1276;98005;-88
2023/09/07 12:18:31;;;;;;;3.80;2.90;;;;;;;26.11;63.23;101706.39;105523;1273;98426;-87
2023/09/07 12:21:16;;;;;;;4.40;3.50;;;;;;;26.09;61.89;101703.09;105620;1273;102072;-86
2023/09/07 12:24:03;;;;;;;3.80;3.10;;;;;;;26.04;61.08;101699.67;105600;1273;100566;-89
2023/09/07 12:26:48;;;;;;;8.50;4.00;;;;;;;26.11;61.56;101697.99;105354;1276;97969;-86
2023/09/07 12:29:34;;;;;;;7.40;3.40;;;;;;;26.22;62.21;101698.97;105126;1267;96540;-87
2023/09/07 12:32:20;;;;;;;4.00;2.60;;;;;;;26.30;61.30;101698.41;105254;1273;97875;-85
2023/09/07 12:35:08;;;;;;;5.90;3.30;;;;;;;26.40;61.85;101699.75;105498;1268;101428;-86
2023/09/07 12:37:58;;;;;;;4.20;3.20;;;;;;;26.49;61.48;101699.05;105172;1272;100493;-87
2023/09/07 12:40:44;;;;;;;6.20;3.40;;;;;;;26.49;60.76;101697.61;105235;1273;99206;-87
2023/09/07 12:43:30;;;;;;;6.50;3.80;;;;;;;26.45;60.75;101699.67;105181;1276;98129;-86
2023/09/07 12:46:16;;;;;;;4.00;3.30;;;;;;;26.40;61.15;101700.52;105152;1274;152685;-86
2023/09/07 12:49:01;;;;;;;3.30;2.90;;;;;;;26.33;61.38;101695.48;105255;1275;101986;-86
2023/09/07 12:51:47;;;;;;;6.40;3.40;;;;;;;26.24;62.31;101698.38;105300;1273;99835;-86
2023/09/07 12:54:33;;;;;;;5.60;3.30;;;;;;;26.16;63.77;101694.41;105265;1272;98062;-86